tititudorancea.com
Station Historical Data
Daily Summary for January 13, 2018 Units:  Metric    English   Both
« Previous Day
Next Day »
Daily Weekly Monthly Yearly Custom
  High: Low: Average:
Temperature: -17.8 °C 10.6 °C 12.8 °C
Dew Point: -17.8 °C 5.3 °C 7.4 °C
Humidity: Humidity % 54 % 68 %
Wind Speed: 0 km/h 7.2 km/h 17.7 km/h
Wind Gust: 0 km/h - -
Wind:- - WSW
Pressure: 0 hPa 1003.6 hPa -
Precipitation: 2.29 mm    
Historical Graphs
 
 
Ararat weather Find more about Weather in Ararat, AU


 



 


Tabular Data for January 13, 2018
Time Temperature Dew Point Pressure Wind Wind Speed Wind Gust Humidity Rainfall Rate (Hourly)
-17.8 °C -17.8 °C 0 hPa Calm     Humidity % 0 mm
14:38 15 °C 11.8 °C 1003.6 hPa WNW 7.2 km/h 8 km/h 81 % 1.78 mm
14:47 15.1 °C 12 °C 1003.6 hPa WNW 8.7 km/h 9.3 km/h 82 % 1.27 mm
14:54 14.9 °C 12.3 °C 1003.9 hPa WNW 7.7 km/h 9.3 km/h 84 % 0.76 mm
15:12 13.5 °C 11 °C 1004.3 hPa North 19.6 km/h 31.5 km/h 85 % 1.78 mm
15:18 13 °C 10.3 °C 1004.3 hPa WSW 17.1 km/h 27.8 km/h 84 % 2.03 mm
15:35 13.8 °C 10.9 °C 1003.9 hPa SW 11.7 km/h 18.5 km/h 83 % 1.78 mm
15:45 14.4 °C 11.6 °C 1003.6 hPa WSW 11.6 km/h 20.9 km/h 83 % 1.78 mm
15:53 14.4 °C 11.4 °C 1003.6 hPa North 10.9 km/h 17.7 km/h 82 % 1.52 mm
16:14 16 °C 11.8 °C 1003.9 hPa North 21.9 km/h 32.2 km/h 76 % 0.25 mm
16:44 16.8 °C 10.2 °C 1003.9 hPa SW 23.5 km/h 31.5 km/h 65 % 0 mm
16:51 17.1 °C 9.3 °C 1003.9 hPa SW 28.2 km/h 40.7 km/h 60 % 0 mm
17:19 16.4 °C 8.9 °C 1005 hPa SW 27.7 km/h 38.9 km/h 61 % 0 mm
17:24 16.4 °C 8.8 °C 1005 hPa SW 20.6 km/h 33.3 km/h 61 % 0 mm
17:51 15.7 °C 7.4 °C 1005.3 hPa North 26.9 km/h 48.1 km/h 58 % 0 mm
17:58 15.3 °C 7.3 °C 1005.6 hPa SW 24 km/h 31.5 km/h 59 % 0 mm
18:03 15.5 °C 8 °C 1005.3 hPa SW 23.8 km/h 33.3 km/h 61 % 0 mm
18:09 15.4 °C 6.1 °C 1005.6 hPa WSW 33 km/h 48.1 km/h 54 % 0 mm
18:34 14.6 °C 8.3 °C 1006 hPa SSW 19.3 km/h 35.2 km/h 66 % 0 mm
18:45 14.7 °C 7.7 °C 1006.3 hPa SSW 23.2 km/h 38.9 km/h 63 % 0 mm
19:02 15 °C 6.6 °C 1006.3 hPa North 28 km/h 40.7 km/h 57 % 0 mm
19:13 14.4 °C 6.7 °C 1007.3 hPa North 31.4 km/h 44.4 km/h 60 % 0 mm
19:43 13.9 °C 7.4 °C 1007.7 hPa SW 22.9 km/h 31.5 km/h 65 % 0 mm
19:55 14.1 °C 5.9 °C 1008.4 hPa SSW 19.6 km/h 31.5 km/h 58 % 0 mm
20:02 14.1 °C 5.7 °C 1008.4 hPa SSW 22.7 km/h 33.8 km/h 57 % 0 mm
20:08 13.9 °C 5.8 °C 1008.7 hPa SW 21.9 km/h 31.5 km/h 58 % 0 mm
20:14 13.6 °C 5.7 °C 1008.7 hPa North 9.5 km/h 16.7 km/h 59 % 0 mm
20:27 13.1 °C 5.3 °C 1009 hPa SW 15.1 km/h 18.5 km/h 59 % 0 mm
20:49 12.6 °C 6.4 °C 1009.4 hPa SSW 13 km/h 20.4 km/h 66 % 0 mm
21:04 12.5 °C 6.8 °C 1009.7 hPa SW 10.8 km/h 14.8 km/h 68 % 0 mm
21:13 12.4 °C 6.7 °C 1009.7 hPa SW 19.5 km/h 24.1 km/h 68 % 0 mm
21:22 12.1 °C 5.7 °C 1010 hPa SSW 17.9 km/h 24.1 km/h 65 % 0 mm
21:42 11.6 °C 6.3 °C 1010.7 hPa SSW 20.6 km/h 31.5 km/h 70 % 0 mm
21:47 11.6 °C 6.5 °C 1010.7 hPa SSW 11.9 km/h 33.8 km/h 71 % 0 mm
21:54 11.3 °C 6.9 °C 1010.7 hPa SW 12.6 km/h 22.5 km/h 74 % 0 mm
22:15 11.1 °C 6.8 °C 1011.1 hPa SW 14.3 km/h 24.1 km/h 75 % 0 mm
22:33 11.1 °C 7 °C 1011.4 hPa SSW 16.6 km/h 27.8 km/h 76 % 0 mm
22:58 10.9 °C 6.9 °C 1011.7 hPa North 12.6 km/h 16.7 km/h 76 % 0 mm
23:06 10.8 °C 7.2 °C 1011.7 hPa SSW 15.3 km/h 16.7 km/h 78 % 0 mm
23:16 10.8 °C 7.3 °C 1011.7 hPa SSW 20.6 km/h 27.8 km/h 79 % 0 mm
23:27 10.7 °C 7.3 °C 1011.7 hPa SSW 16.6 km/h 22.2 km/h 80 % 0 mm
23:35 10.6 °C 7.5 °C 1011.7 hPa SSW 12.1 km/h 20.4 km/h 81 % 0 mm
23:42 10.6 °C 7.5 °C 1012.1 hPa North 8.7 km/h 18.5 km/h 81 % 0 mm
Ararat Weather
Compliments of Weather Underground - 768 kb
Click here to send mail.


ABOUT

Live weather data from Ararat, Victoria, Australia, 3377
Data uploaded from Cumulus every 5 minutes to Weather Underground.
This site then downloads the raw data for formatting and display.
Metric and imperial data can be displayed. Graphs and historical data available.
Includes Sun and Moon times and rain image live from BOM.

Check out Ararat Weather on Facebook, Twitter and Google +

Help support ongoing costs by checking out the ads





Follow @AraratWeather